Time;durP1;ratioP1;P1;durP2;ratioP2;P2;SDS_P1;SDS_P2;PMS_P1;PMS_P2;Temp;Humidity;BMP_temperature;BMP_pressure;BME280_temperature;BME280_humidity;BME280_pressure;Samples;Min_cycle;Max_cycle;Signal;HPM_P1;HPM_P2
2021/10/04 00:01:22;;;;;;;0.40;0.20;;;15.30;97.70;;;;;;5095931;28;20026;-81
2021/10/04 00:03:48;;;;;;;0.25;0.20;;;15.30;97.50;;;;;;5094622;28;20073;-81
2021/10/04 00:06:14;;;;;;;0.70;0.30;;;15.30;97.60;;;;;;5095326;28;20034;-81
2021/10/04 00:08:39;;;;;;;0.47;0.30;;;15.20;97.60;;;;;;5094540;28;20449;-81
2021/10/04 00:11:05;;;;;;;1.60;0.30;;;15.20;97.70;;;;;;5095390;28;20515;-81
2021/10/04 00:13:30;;;;;;;2.70;0.40;;;15.20;97.60;;;;;;5094396;28;20034;-82
2021/10/04 00:15:58;;;;;;;0.22;0.20;;;15.20;97.80;;;;;;5096097;28;20039;-81
2021/10/04 00:18:24;;;;;;;0.90;0.40;;;15.20;97.80;;;;;;5094633;28;20360;-81
2021/10/04 00:20:50;;;;;;;0.73;0.40;;;15.20;97.90;;;;;;5095980;28;20030;-80
2021/10/04 00:23:15;;;;;;;1.80;0.30;;;15.10;98.00;;;;;;5095876;28;20028;-80
2021/10/04 00:25:41;;;;;;;1.13;0.50;;;15.10;97.90;;;;;;5094360;28;20028;-81
2021/10/04 00:28:07;;;;;;;0.30;0.20;;;15.10;98.10;;;;;;5095593;28;20455;-81
2021/10/04 00:30:33;;;;;;;0.32;0.20;;;15.10;98.00;;;;;;5094802;28;20080;-81
2021/10/04 00:32:58;;;;;;;1.10;0.40;;;15.10;97.90;;;;;;5095726;28;20077;-81
2021/10/04 00:35:25;;;;;;;0.45;0.22;;;15.10;97.80;;;;;;5095619;28;20031;-81
2021/10/04 00:37:53;;;;;;;1.27;0.20;;;15.00;98.00;;;;;;5093489;28;20041;-81
2021/10/04 00:40:24;;;;;;;0.63;0.20;;;15.10;98.10;;;;;;5094127;28;20024;-81
2021/10/04 00:42:50;;;;;;;0.55;0.30;;;15.00;98.00;;;;;;5073860;28;20020;-81
2021/10/04 00:45:18;;;;;;;0.70;0.30;;;15.00;98.00;;;;;;5074074;28;20085;-81
2021/10/04 00:47:44;;;;;;;0.40;0.30;;;15.00;98.00;;;;;;5076239;28;20036;-81
2021/10/04 00:50:11;;;;;;;0.70;0.40;;;14.80;98.10;;;;;;5095043;28;20407;-81
2021/10/04 00:52:38;;;;;;;0.55;0.40;;;14.80;98.20;;;;;;5094674;28;20030;-81
2021/10/04 00:55:06;;;;;;;1.35;0.35;;;14.80;98.30;;;;;;5093877;28;20026;-80
2021/10/04 00:57:31;;;;;;;0.55;0.20;;;14.80;98.10;;;;;;5093594;28;20043;-81
2021/10/04 00:59:57;;;;;;;1.30;0.30;;;14.90;98.20;;;;;;5094365;28;20054;-81
2021/10/04 01:02:23;;;;;;;0.95;0.30;;;14.80;98.20;;;;;;5093992;28;20026;-81
2021/10/04 01:04:49;;;;;;;1.27;0.30;;;14.80;98.10;;;;;;5094823;28;20099;-81
2021/10/04 01:07:15;;;;;;;1.75;0.20;;;14.80;98.10;;;;;;5093593;28;20025;-80
2021/10/04 01:09:40;;;;;;;0.38;0.17;;;14.80;98.00;;;;;;5093320;28;20115;-81
2021/10/04 01:12:06;;;;;;;0.63;0.20;;;14.90;97.90;;;;;;5093967;28;20030;-81
2021/10/04 01:14:32;;;;;;;0.25;0.15;;;14.80;98.10;;;;;;5093683;28;20016;-81
2021/10/04 01:16:58;;;;;;;0.38;0.30;;;14.80;98.00;;;;;;5093762;28;20020;-80
2021/10/04 01:19:23;;;;;;;0.80;0.25;;;14.80;98.10;;;;;;5094100;28;20020;-81
2021/10/04 01:21:49;;;;;;;0.43;0.20;;;14.80;98.30;;;;;;5093459;28;20118;-81
2021/10/04 01:24:16;;;;;;;0.10;0.10;;;14.70;98.30;;;;;;5094417;28;20028;-82
2021/10/04 01:26:41;;;;;;;1.40;0.22;;;14.70;98.40;;;;;;5081065;28;20021;-81
2021/10/04 01:29:07;;;;;;;0.55;0.22;;;14.70;98.50;;;;;;5074885;28;20020;-81
2021/10/04 01:31:33;;;;;;;0.40;0.20;;;14.70;98.60;;;;;;5073788;28;20024;-81
2021/10/04 01:33:59;;;;;;;0.28;0.17;;;14.70;98.70;;;;;;5089615;28;20471;-81
2021/10/04 01:36:26;;;;;;;1.00;0.28;;;14.70;98.70;;;;;;5093410;28;20031;-80
2021/10/04 01:38:54;;;;;;;1.17;0.22;;;14.70;99.10;;;;;;5092836;28;20023;-81
2021/10/04 01:41:20;;;;;;;1.13;0.30;;;14.70;99.00;;;;;;5094125;28;20428;-81
2021/10/04 01:43:45;;;;;;;1.23;0.47;;;14.70;99.10;;;;;;5093897;28;20479;-81
2021/10/04 01:46:11;;;;;;;1.40;0.20;;;14.60;99.20;;;;;;5094339;28;20028;-81
2021/10/04 01:48:37;;;;;;;1.08;0.40;;;14.60;99.40;;;;;;5092748;28;20016;-81
2021/10/04 01:51:03;;;;;;;0.40;0.30;;;14.50;99.50;;;;;;5093237;28;20525;-81
2021/10/04 01:53:28;;;;;;;0.40;0.20;;;14.50;99.60;;;;;;5093738;28;20020;-81
2021/10/04 01:55:54;;;;;;;1.48;0.60;;;14.50;99.70;;;;;;5093502;28;20453;-81
2021/10/04 01:58:20;;;;;;;1.10;0.40;;;14.50;99.80;;;;;;5093943;28;20365;-81
2021/10/04 02:00:46;;;;;;;1.42;0.50;;;14.50;99.90;;;;;;5092704;28;20062;-81
2021/10/04 02:03:11;;;;;;;0.90;0.30;;;14.50;99.90;;;;;;5093292;28;20031;-80
2021/10/04 02:05:37;;;;;;;5.47;0.45;;;14.50;99.90;;;;;;5092779;28;20028;-81
2021/10/04 02:08:03;;;;;;;0.98;0.50;;;14.40;99.90;;;;;;5094089;28;20055;-81
2021/10/04 02:10:36;;;;;;;1.33;0.40;;;14.40;99.90;;;;;;5092993;28;20487;-81
2021/10/04 02:13:05;;;;;;;1.02;0.40;;;14.30;99.90;;;;;;5093576;28;20017;-82
2021/10/04 02:15:31;;;;;;;3.60;0.38;;;14.30;99.90;;;;;;5093765;28;20460;-81
2021/10/04 02:17:58;;;;;;;0.75;0.40;;;14.20;99.90;;;;;;5093025;28;20361;-80
2021/10/04 02:20:27;;;;;;;0.90;0.30;;;14.20;99.90;;;;;;5092556;28;20127;-81
2021/10/04 02:22:54;;;;;;;2.50;0.35;;;14.20;99.90;;;;;;5091988;28;20035;-81
2021/10/04 02:25:21;;;;;;;1.55;0.32;;;14.10;99.90;;;;;;5093182;28;20039;-81
2021/10/04 02:27:47;;;;;;;2.58;0.30;;;14.00;99.90;;;;;;5092532;28;20028;-82
2021/10/04 02:30:24;;;;;;;0.30;0.28;;;14.00;99.90;;;;;;5093185;28;20032;-81
2021/10/04 02:32:50;;;;;;;0.80;0.43;;;14.10;99.90;;;;;;5092357;28;20020;-81
2021/10/04 02:35:16;;;;;;;2.08;0.50;;;14.10;99.90;;;;;;5094083;28;20113;-81
2021/10/04 02:37:42;;;;;;;1.13;0.38;;;14.10;99.90;;;;;;5093419;28;20023;-81
2021/10/04 02:40:10;;;;;;;2.83;0.40;;;14.10;99.90;;;;;;5092668;28;20481;-81
2021/10/04 02:42:36;;;;;;;0.55;0.30;;;14.00;99.90;;;;;;5092391;28;20020;-81
2021/10/04 02:45:03;;;;;;;0.80;0.40;;;14.00;99.90;;;;;;5092905;28;20032;-81
2021/10/04 02:47:28;;;;;;;0.73;0.38;;;14.00;99.90;;;;;;5092645;28;20024;-81
2021/10/04 02:49:54;;;;;;;1.67;0.32;;;14.00;99.90;;;;;;5091789;28;20104;-81
2021/10/04 02:52:21;;;;;;;0.85;0.28;;;14.00;99.90;;;;;;5092594;28;20031;-80
2021/10/04 02:54:47;;;;;;;0.50;0.30;;;14.00;99.90;;;;;;5093030;28;20103;-81
2021/10/04 02:57:13;;;;;;;0.32;0.10;;;14.00;99.90;;;;;;5092406;28;20063;-81
2021/10/04 02:59:39;;;;;;;1.30;0.20;;;14.00;99.90;;;;;;5092803;28;20457;-82
2021/10/04 03:02:05;;;;;;;0.25;0.20;;;14.00;99.90;;;;;;5097104;28;20050;-81
2021/10/04 03:04:31;;;;;;;0.60;0.30;;;13.90;99.90;;;;;;5095420;28;20032;-81
2021/10/04 03:06:56;;;;;;;0.85;0.30;;;13.90;99.90;;;;;;5096656;28;20469;-82
2021/10/04 03:09:22;;;;;;;0.80;0.40;;;13.90;99.90;;;;;;5096705;28;20108;-81
2021/10/04 03:11:47;;;;;;;0.35;0.20;;;13.90;99.90;;;;;;5096076;28;20354;-81
2021/10/04 03:14:13;;;;;;;0.50;0.30;;;13.90;99.90;;;;;;5096799;28;20036;-81
2021/10/04 03:16:39;;;;;;;0.75;0.40;;;13.90;99.90;;;;;;5096138;28;20364;-82
2021/10/04 03:19:05;;;;;;;0.57;0.30;;;13.90;99.90;;;;;;5107994;28;20024;-81
2021/10/04 03:21:30;;;;;;;0.68;0.40;;;13.90;99.90;;;;;;5095636;28;20027;-81
2021/10/04 03:23:56;;;;;;;0.57;0.22;;;13.80;99.90;;;;;;5129155;27;20058;-82
2021/10/04 03:26:22;;;;;;;0.95;0.30;;;13.80;99.90;;;;;;5129590;27;20525;-81
2021/10/04 03:28:47;;;;;;;1.45;0.35;;;13.80;99.90;;;;;;5096240;28;20020;-81
2021/10/04 03:31:13;;;;;;;1.73;0.30;;;13.80;99.90;;;;;;5095350;28;20158;-81
2021/10/04 03:33:39;;;;;;;1.13;0.40;;;13.80;99.90;;;;;;5096081;28;20024;-81
2021/10/04 03:36:05;;;;;;;0.82;0.30;;;13.80;99.90;;;;;;5129438;27;20028;-81
2021/10/04 03:38:31;;;;;;;0.60;0.30;;;13.80;99.90;;;;;;5096560;28;20031;-81
2021/10/04 03:40:56;;;;;;;0.68;0.40;;;13.80;99.90;;;;;;5129503;27;20241;-81
2021/10/04 03:43:22;;;;;;;2.78;0.50;;;13.80;99.90;;;;;;5096471;28;20444;-81
2021/10/04 03:45:48;;;;;;;0.47;0.30;;;13.80;99.90;;;;;;5095933;28;20016;-81
2021/10/04 03:48:14;;;;;;;2.20;0.40;;;13.80;99.90;;;;;;5096450;28;20031;-80
2021/10/04 03:50:39;;;;;;;0.50;0.20;;;13.80;99.90;;;;;;5095297;28;20032;-82
2021/10/04 03:53:05;;;;;;;1.13;0.47;;;13.80;99.90;;;;;;5129985;27;20024;-81
2021/10/04 03:55:31;;;;;;;1.55;0.30;;;13.80;99.90;;;;;;5129411;27;20063;-81
2021/10/04 03:57:57;;;;;;;0.60;0.50;;;13.80;99.90;;;;;;5128614;27;20048;-81
2021/10/04 04:00:24;;;;;;;2.78;0.70;;;13.80;99.90;;;;;;5095383;28;20369;-81
2021/10/04 04:02:50;;;;;;;0.98;0.50;;;13.90;99.90;;;;;;5128933;27;20027;-81
2021/10/04 04:05:16;;;;;;;1.23;0.43;;;13.90;99.90;;;;;;5096295;28;20027;-81
2021/10/04 04:07:42;;;;;;;1.13;0.30;;;13.90;99.90;;;;;;5128574;27;20023;-81
2021/10/04 04:10:09;;;;;;;1.17;0.50;;;13.90;99.90;;;;;;5096218;28;20028;-81
2021/10/04 04:12:35;;;;;;;0.40;0.30;;;13.90;99.90;;;;;;5128249;27;20016;-81
2021/10/04 04:15:01;;;;;;;0.95;0.70;;;13.90;99.90;;;;;;5128579;27;20067;-81
2021/10/04 04:17:29;;;;;;;0.50;0.30;;;13.90;99.90;;;;;;5128888;27;20077;-81
2021/10/04 04:19:55;;;;;;;0.30;0.30;;;13.90;99.90;;;;;;5095238;28;20103;-81
2021/10/04 04:22:20;;;;;;;0.95;0.57;;;13.90;99.90;;;;;;5095478;28;20062;-81
2021/10/04 04:24:46;;;;;;;1.63;0.40;;;13.90;99.90;;;;;;5128334;27;20127;-82
2021/10/04 04:27:12;;;;;;;1.25;0.40;;;13.90;99.90;;;;;;5095713;28;20471;-81
2021/10/04 04:29:38;;;;;;;1.30;0.40;;;13.90;99.90;;;;;;5128933;27;20028;-81
2021/10/04 04:32:09;;;;;;;0.90;0.38;;;13.90;99.90;;;;;;5128501;27;20070;-81
2021/10/04 04:34:35;;;;;;;0.83;0.37;;;13.90;99.90;;;;;;5129148;27;20043;-81
2021/10/04 04:37:01;;;;;;;3.85;0.50;;;13.90;99.90;;;;;;5095151;28;20265;-81
2021/10/04 04:39:27;;;;;;;1.30;0.57;;;13.90;99.90;;;;;;5095690;28;20081;-81
2021/10/04 04:41:54;;;;;;;0.95;0.57;;;13.80;99.90;;;;;;5128323;27;20028;-81
2021/10/04 04:44:21;;;;;;;2.63;0.60;;;13.90;99.90;;;;;;5128688;27;20023;-81
2021/10/04 04:46:47;;;;;;;1.10;0.47;;;13.90;99.90;;;;;;5094817;28;20483;-82
2021/10/04 04:49:13;;;;;;;3.03;0.60;;;13.80;99.90;;;;;;5094481;28;20024;-82
2021/10/04 04:51:38;;;;;;;4.00;0.60;;;13.80;99.90;;;;;;5128279;27;20058;-81
2021/10/04 04:54:04;;;;;;;1.92;0.70;;;13.80;99.90;;;;;;5095126;28;20042;-82
2021/10/04 04:56:30;;;;;;;1.27;0.80;;;13.80;99.90;;;;;;5128332;27;20086;-81
2021/10/04 04:58:55;;;;;;;2.10;0.75;;;13.80;99.90;;;;;;5094869;28;20467;-81
2021/10/04 05:01:21;;;;;;;1.40;0.73;;;13.90;99.90;;;;;;5128355;27;20024;-81
2021/10/04 05:03:46;;;;;;;0.80;0.57;;;13.80;99.90;;;;;;5093547;28;20059;-82
2021/10/04 05:06:12;;;;;;;0.50;0.45;;;13.70;99.90;;;;;;5095084;28;20058;-81
2021/10/04 05:08:38;;;;;;;1.67;0.60;;;13.70;99.90;;;;;;5128498;27;20027;-81
2021/10/04 05:11:04;;;;;;;1.08;0.40;;;13.70;99.90;;;;;;5093192;28;20028;-81
2021/10/04 05:13:29;;;;;;;1.00;0.60;;;13.70;99.90;;;;;;5127937;27;20020;-81
2021/10/04 05:15:55;;;;;;;1.05;0.52;;;13.70;99.90;;;;;;5127654;27;20114;-81
2021/10/04 05:18:21;;;;;;;1.85;0.50;;;13.60;99.90;;;;;;5128106;27;20028;-82
2021/10/04 05:20:46;;;;;;;0.70;0.40;;;13.70;99.90;;;;;;5094241;28;20141;-81
2021/10/04 05:23:12;;;;;;;1.75;0.30;;;13.60;99.90;;;;;;5127605;27;20024;-81
2021/10/04 05:25:38;;;;;;;1.05;0.47;;;13.60;99.90;;;;;;5094606;28;20077;-81
2021/10/04 05:28:03;;;;;;;0.68;0.40;;;13.60;99.90;;;;;;5093027;28;20453;-81
2021/10/04 05:30:29;;;;;;;0.50;0.35;;;13.70;99.90;;;;;;5093815;28;20032;-80
2021/10/04 05:32:55;;;;;;;1.80;0.40;;;13.60;99.90;;;;;;5093709;28;20032;-81
2021/10/04 05:35:21;;;;;;;1.77;0.43;;;13.50;99.90;;;;;;5093503;28;20042;-81
2021/10/04 05:37:46;;;;;;;2.65;0.30;;;13.50;99.90;;;;;;5127263;27;20456;-82
2021/10/04 05:40:14;;;;;;;3.00;0.20;;;13.50;99.90;;;;;;5094647;28;20469;-81
2021/10/04 05:42:40;;;;;;;2.20;0.30;;;13.50;99.90;;;;;;5127994;27;20410;-81
2021/10/04 05:45:08;;;;;;;1.80;0.50;;;13.50;99.90;;;;;;5093256;28;20020;-80
2021/10/04 05:47:34;;;;;;;1.75;0.40;;;13.40;99.90;;;;;;5094397;28;20077;-80
2021/10/04 05:50:00;;;;;;;2.10;0.30;;;13.40;99.90;;;;;;5127380;27;20028;-81
2021/10/04 05:52:26;;;;;;;1.33;0.40;;;13.40;99.90;;;;;;5127616;28;20024;-81
2021/10/04 05:54:52;;;;;;;0.63;0.40;;;13.40;99.90;;;;;;5093344;28;20031;-81
2021/10/04 05:57:17;;;;;;;1.67;0.50;;;13.40;99.90;;;;;;5127115;28;20047;-82
2021/10/04 05:59:43;;;;;;;0.85;0.47;;;13.40;99.90;;;;;;5093670;28;20056;-81
2021/10/04 06:02:10;;;;;;;1.90;0.30;;;13.50;99.90;;;;;;5093499;28;20396;-82
2021/10/04 06:04:36;;;;;;;1.00;0.20;;;13.50;99.90;;;;;;5093088;28;20028;-81
2021/10/04 06:07:02;;;;;;;1.98;0.20;;;13.50;99.90;;;;;;5127009;28;20427;-79
2021/10/04 06:09:27;;;;;;;1.50;0.40;;;13.50;99.90;;;;;;5094261;28;20016;-81
2021/10/04 06:11:53;;;;;;;0.98;0.50;;;13.50;99.90;;;;;;5092814;28;20020;-82
2021/10/04 06:14:19;;;;;;;0.73;0.40;;;13.50;99.90;;;;;;5094456;28;20024;-81
2021/10/04 06:16:44;;;;;;;0.68;0.20;;;13.50;99.90;;;;;;5127630;28;20077;-80
2021/10/04 06:19:10;;;;;;;1.08;0.28;;;13.50;99.90;;;;;;5126887;28;20016;-81
2021/10/04 06:21:36;;;;;;;1.02;0.40;;;13.60;99.90;;;;;;5093271;28;20429;-82
2021/10/04 06:24:01;;;;;;;1.75;0.40;;;13.60;99.90;;;;;;5126264;28;20081;-82
2021/10/04 06:26:27;;;;;;;1.45;0.50;;;13.50;99.90;;;;;;5127440;28;20107;-82
2021/10/04 06:28:52;;;;;;;2.58;0.75;;;13.50;99.90;;;;;;5126281;28;20077;-82
2021/10/04 06:31:18;;;;;;;2.13;0.40;;;13.60;99.90;;;;;;5127296;28;20020;-82
2021/10/04 06:33:44;;;;;;;2.42;0.52;;;13.60;99.90;;;;;;5094125;28;20032;-81
2021/10/04 06:36:09;;;;;;;2.50;0.50;;;13.50;99.90;;;;;;5129601;27;20024;-82
2021/10/04 06:38:35;;;;;;;3.22;0.80;;;13.50;99.90;;;;;;5131081;27;20024;-82
2021/10/04 06:41:01;;;;;;;1.50;0.55;;;13.60;99.90;;;;;;5097647;28;20437;-82
2021/10/04 06:43:26;;;;;;;4.00;0.88;;;13.50;99.90;;;;;;5097668;28;20028;-82
2021/10/04 06:45:52;;;;;;;4.03;0.75;;;13.60;99.90;;;;;;5130129;27;20023;-81
2021/10/04 06:48:17;;;;;;;3.55;0.60;;;13.60;99.90;;;;;;5097166;28;20031;-80
2021/10/04 06:50:43;;;;;;;4.60;0.70;;;13.60;99.90;;;;;;5114621;28;20032;-81
2021/10/04 06:53:09;;;;;;;1.88;0.70;;;13.50;99.90;;;;;;5109079;28;20084;-81
2021/10/04 06:55:34;;;;;;;1.83;0.70;;;13.60;99.90;;;;;;5096688;28;20020;-81
2021/10/04 06:58:00;;;;;;;5.50;0.50;;;13.60;99.90;;;;;;5096919;28;20044;-82
2021/10/04 07:00:26;;;;;;;2.45;0.50;;;13.60;99.90;;;;;;5096570;28;20035;-82
2021/10/04 07:02:52;;;;;;;1.23;0.40;;;13.60;99.90;;;;;;5095997;28;20514;-82
2021/10/04 07:05:19;;;;;;;0.43;0.30;;;13.60;99.90;;;;;;5096138;28;20068;-82
2021/10/04 07:07:46;;;;;;;0.77;0.43;;;13.50;99.90;;;;;;5114072;28;20069;-82
2021/10/04 07:10:12;;;;;;;0.80;0.52;;;13.60;99.90;;;;;;5104380;28;20469;-82
2021/10/04 07:12:38;;;;;;;1.08;0.60;;;13.50;99.90;;;;;;5101459;28;20072;-82
2021/10/04 07:15:05;;;;;;;1.13;0.50;;;13.60;99.90;;;;;;5095513;28;20115;-82
2021/10/04 07:17:31;;;;;;;1.23;0.70;;;13.60;99.90;;;;;;5096056;28;20110;-81
2021/10/04 07:20:13;;;;;;;2.63;0.85;;;13.60;99.90;;;;;;5107376;28;20027;-81
2021/10/04 07:22:40;;;;;;;1.60;0.65;;;13.50;99.90;;;;;;5116004;28;20032;-81
2021/10/04 07:25:07;;;;;;;0.70;0.50;;;13.50;99.90;;;;;;5116159;28;20051;-82
2021/10/04 07:27:33;;;;;;;1.15;0.50;;;13.50;99.90;;;;;;5115759;28;20027;-82
2021/10/04 07:29:59;;;;;;;1.27;0.70;;;13.50;99.90;;;;;;5115673;28;20059;-81
2021/10/04 07:32:25;;;;;;;1.20;0.70;;;13.50;99.90;;;;;;5102244;28;20469;-80
2021/10/04 07:34:59;;;;;;;0.85;0.40;;;13.60;99.90;;;;;;5095136;28;20389;-88
2021/10/04 07:37:25;;;;;;;1.30;0.40;;;13.50;99.90;;;;;;5095586;28;20181;-82
2021/10/04 07:39:51;;;;;;;0.45;0.25;;;13.60;99.90;;;;;;5095464;28;20536;-82
2021/10/04 07:42:16;;;;;;;0.50;0.30;;;13.60;99.90;;;;;;5094908;28;20480;-80
2021/10/04 07:44:42;;;;;;;1.05;0.28;;;13.60;99.90;;;;;;5096208;28;20028;-81
2021/10/04 07:47:08;;;;;;;1.98;0.40;;;13.60;99.90;;;;;;5094135;28;20181;-82
2021/10/04 07:49:33;;;;;;;2.05;0.45;;;13.60;99.90;;;;;;5095028;28;20028;-82
2021/10/04 07:52:00;;;;;;;0.60;0.30;;;13.60;99.90;;;;;;5094585;28;20035;-81
2021/10/04 07:54:27;;;;;;;0.80;0.50;;;13.60;99.90;;;;;;5095281;28;20024;-81
2021/10/04 07:56:53;;;;;;;0.80;0.50;;;13.50;99.90;;;;;;5094138;28;20048;-89
2021/10/04 07:59:18;;;;;;;0.75;0.47;;;13.50;99.90;;;;;;5099597;28;20490;-83
2021/10/04 08:01:44;;;;;;;0.65;0.40;;;13.50;99.90;;;;;;5097371;28;20035;-82
2021/10/04 08:04:11;;;;;;;0.20;0.20;;;13.50;99.90;;;;;;5094215;28;20546;-83
2021/10/04 08:06:37;;;;;;;0.63;0.32;;;13.60;99.90;;;;;;5097125;28;20032;-82
2021/10/04 08:09:03;;;;;;;0.55;0.40;;;13.60;99.90;;;;;;5108648;28;20542;-83
2021/10/04 08:11:28;;;;;;;1.38;0.25;;;13.60;99.90;;;;;;5142780;27;20059;-82
2021/10/04 08:13:54;;;;;;;1.00;0.40;;;13.60;99.90;;;;;;5109334;28;20044;-82
2021/10/04 08:16:22;;;;;;;0.40;0.30;;;13.70;99.90;;;;;;5140454;27;20064;-82
2021/10/04 08:18:51;;;;;;;1.17;0.50;;;13.70;99.90;;;;;;5112332;28;20479;-85
2021/10/04 08:21:18;;;;;;;1.60;0.73;;;13.70;99.90;;;;;;5095527;28;20080;-82
2021/10/04 08:23:45;;;;;;;1.35;0.50;;;13.70;99.90;;;;;;5094755;28;20043;-82
2021/10/04 08:26:11;;;;;;;1.23;0.65;;;13.80;99.90;;;;;;5095241;28;20035;-81
2021/10/04 08:28:37;;;;;;;0.80;0.70;;;13.80;99.90;;;;;;5109679;28;20023;-80
2021/10/04 08:31:03;;;;;;;1.60;0.60;;;13.80;99.90;;;;;;5105574;28;20031;-81
2021/10/04 08:33:29;;;;;;;1.40;0.50;;;13.70;99.90;;;;;;5096054;28;20028;-81
2021/10/04 08:35:56;;;;;;;0.68;0.43;;;13.70;99.90;;;;;;5097838;28;20491;-83
2021/10/04 08:38:21;;;;;;;0.77;0.50;;;13.70;99.90;;;;;;5114018;28;20068;-81
2021/10/04 08:40:47;;;;;;;1.35;0.40;;;13.70;99.90;;;;;;5115051;28;20032;-81
2021/10/04 08:43:13;;;;;;;1.52;0.40;;;13.70;99.90;;;;;;5095398;28;20032;-82
2021/10/04 08:45:40;;;;;;;0.68;0.38;;;13.60;99.90;;;;;;5077211;28;20091;-82
2021/10/04 08:48:07;;;;;;;0.57;0.30;;;13.70;99.90;;;;;;5142658;27;20032;-80
2021/10/04 08:50:34;;;;;;;0.40;0.22;;;13.60;99.90;;;;;;5096619;28;20077;-81
2021/10/04 08:53:01;;;;;;;0.90;0.30;;;13.60;99.90;;;;;;5111325;28;20036;-84
2021/10/04 08:55:27;;;;;;;1.20;0.30;;;13.60;99.90;;;;;;5098073;28;20097;-81
2021/10/04 08:57:53;;;;;;;0.30;0.20;;;13.60;99.90;;;;;;5100357;28;20078;-81
2021/10/04 09:00:19;;;;;;;0.50;0.30;;;13.60;99.90;;;;;;5096352;28;20028;-83
2021/10/04 09:02:45;;;;;;;4.95;0.85;;;13.70;99.90;;;;;;5095323;28;20024;-83
2021/10/04 09:05:25;;;;;;;3.60;0.75;;;13.70;99.90;;;;;;5098174;28;20031;-81
2021/10/04 09:07:52;;;;;;;3.08;0.60;;;13.70;99.90;;;;;;5100365;28;20078;-80
2021/10/04 09:10:26;;;;;;;1.27;0.30;;;13.70;99.90;;;;;;5098168;28;20037;-80
2021/10/04 09:12:58;;;;;;;1.33;0.55;;;13.80;99.90;;;;;;5086500;28;20062;-81
2021/10/04 09:15:31;;;;;;;0.88;0.50;;;13.80;99.90;;;;;;5107226;28;20012;-80
2021/10/04 09:17:59;;;;;;;3.88;0.35;;;13.80;99.90;;;;;;5094567;28;20039;-81
2021/10/04 09:20:26;;;;;;;2.03;0.55;;;13.80;99.90;;;;;;5097111;28;20024;-85
2021/10/04 09:22:51;;;;;;;0.35;0.30;;;13.80;99.90;;;;;;5090245;28;20023;-80
2021/10/04 09:25:17;;;;;;;1.75;0.32;;;13.80;99.90;;;;;;5092586;28;20028;-80
2021/10/04 09:27:47;;;;;;;1.95;0.40;;;13.70;99.90;;;;;;5102419;28;20514;-80
2021/10/04 09:30:26;;;;;;;0.65;0.28;;;13.70;99.90;;;;;;5096479;28;20043;-80
2021/10/04 09:32:53;;;;;;;1.38;0.45;;;13.80;99.90;;;;;;5095562;28;20027;-80
2021/10/04 09:35:45;;;;;;;0.25;0.25;;;13.80;99.90;;;;;;5099052;28;20031;-81
2021/10/04 09:38:17;;;;;;;1.15;0.30;;;13.90;99.90;;;;;;5104600;28;20127;-81
2021/10/04 09:40:48;;;;;;;1.13;0.30;;;14.00;99.90;;;;;;5104825;28;20032;-80
2021/10/04 09:43:24;;;;;;;0.88;0.40;;;14.00;99.90;;;;;;5126163;27;20032;-79
2021/10/04 09:46:23;;;;;;;0.73;0.38;;;14.00;99.90;;;;;;5092961;28;20024;-80
2021/10/04 09:49:01;;;;;;;1.73;0.47;;;14.00;99.90;;;;;;5096778;28;20059;-81
2021/10/04 09:51:27;;;;;;;0.63;0.30;;;14.00;99.90;;;;;;5113072;28;20032;-80
2021/10/04 09:54:10;;;;;;;2.85;0.38;;;14.00;99.90;;;;;;5105952;28;20465;-80
2021/10/04 09:56:36;;;;;;;1.45;0.30;;;14.00;99.90;;;;;;5105111;28;20040;-81
2021/10/04 09:59:03;;;;;;;1.95;0.50;;;14.00;99.90;;;;;;5107144;28;20116;-81
2021/10/04 10:01:29;;;;;;;3.15;0.50;;;14.00;99.90;;;;;;5103845;28;20024;-82
2021/10/04 10:03:55;;;;;;;0.60;0.30;;;14.00;99.90;;;;;;5108111;28;20038;-80
2021/10/04 10:06:21;;;;;;;1.45;0.40;;;14.10;99.90;;;;;;5108160;28;20094;-81
2021/10/04 10:08:48;;;;;;;1.25;0.60;;;14.10;99.90;;;;;;5113148;28;20065;-82
2021/10/04 10:11:17;;;;;;;1.50;0.70;;;14.20;99.90;;;;;;5110396;28;20028;-81
2021/10/04 10:13:43;;;;;;;0.88;0.50;;;14.30;99.90;;;;;;5097382;28;20024;-81
2021/10/04 10:16:23;;;;;;;2.15;0.47;;;14.40;99.90;;;;;;5123804;27;20020;-79
2021/10/04 10:18:54;;;;;;;1.13;0.43;;;14.50;99.90;;;;;;5113305;28;20020;-81
2021/10/04 10:21:22;;;;;;;1.00;0.38;;;14.60;99.80;;;;;;5104202;28;20476;-81
2021/10/04 10:23:52;;;;;;;0.40;0.30;;;14.70;99.20;;;;;;5122426;27;20083;-82
2021/10/04 10:26:30;;;;;;;0.55;0.30;;;14.70;98.90;;;;;;5100268;28;20663;-82
2021/10/04 10:29:23;;;;;;;1.52;0.50;;;14.70;98.50;;;;;;5108116;28;20039;-88
2021/10/04 10:32:03;;;;;;;2.55;0.50;;;14.80;98.70;;;;;;5101535;28;20038;-81
2021/10/04 10:34:29;;;;;;;1.52;0.50;;;14.80;98.60;;;;;;5115128;28;20092;-82
2021/10/04 10:37:07;;;;;;;0.55;0.40;;;14.80;98.80;;;;;;5105855;28;20484;-81
2021/10/04 10:39:34;;;;;;;0.30;0.20;;;14.80;98.90;;;;;;5101813;28;20142;-81
2021/10/04 10:42:22;;;;;;;1.45;0.50;;;14.80;99.10;;;;;;5094802;28;20115;-81
2021/10/04 10:44:54;;;;;;;0.43;0.20;;;14.80;99.00;;;;;;5102309;28;20137;-83
2021/10/04 10:47:40;;;;;;;;;;;14.80;99.00;;;;;;5119466;27;20089;-81
2021/10/04 10:50:27;;;;;;;0.40;0.30;;;14.80;99.00;;;;;;5104004;28;19914;-81
2021/10/04 10:52:56;;;;;;;0.57;0.25;;;14.80;98.80;;;;;;5096081;28;20024;-80
2021/10/04 10:55:21;;;;;;;0.57;0.30;;;14.80;98.50;;;;;;5095738;28;20031;-80
2021/10/04 10:57:50;;;;;;;0.57;0.40;;;14.80;98.30;;;;;;5095522;28;20048;-81
2021/10/04 11:00:29;;;;;;;0.40;0.30;;;14.90;98.10;;;;;;5096319;28;20044;-81
2021/10/04 11:02:57;;;;;;;5.43;0.60;;;14.90;98.20;;;;;;5095844;28;20073;-81
2021/10/04 11:05:37;;;;;;;1.13;0.32;;;15.00;98.50;;;;;;5096925;28;20029;-80
2021/10/04 11:08:05;;;;;;;0.50;0.30;;;15.10;98.70;;;;;;5095367;28;20025;-80
2021/10/04 11:10:33;;;;;;;1.38;0.40;;;15.10;98.90;;;;;;5096964;28;20032;-80
2021/10/04 11:13:08;;;;;;;0.43;0.30;;;15.10;99.00;;;;;;5095318;28;20433;-81
2021/10/04 11:15:38;;;;;;;1.40;0.40;;;15.10;98.50;;;;;;5095942;28;20521;-81
2021/10/04 11:18:05;;;;;;;0.52;0.28;;;15.00;98.00;;;;;;5096269;28;20048;-81
2021/10/04 11:20:32;;;;;;;0.30;0.30;;;15.00;98.30;;;;;;5095040;28;20024;-80
2021/10/04 11:23:14;;;;;;;0.40;0.20;;;15.00;98.60;;;;;;5094793;28;20016;-91
2021/10/04 11:25:51;;;;;;;2.53;0.30;;;15.10;98.20;;;;;;5096538;28;20025;-80
2021/10/04 11:28:37;;;;;;;1.40;0.30;;;15.00;97.80;;;;;;5096100;28;20028;-80
2021/10/04 11:31:05;;;;;;;1.05;0.40;;;15.00;98.10;;;;;;5094886;28;20495;-79
2021/10/04 11:33:33;;;;;;;0.85;0.30;;;15.00;98.40;;;;;;5096299;28;20362;-81
2021/10/04 11:36:01;;;;;;;1.25;0.22;;;15.10;98.50;;;;;;5096046;28;20384;-83
2021/10/04 11:38:29;;;;;;;0.65;0.32;;;15.00;97.90;;;;;;5096216;28;20097;-80
2021/10/04 11:40:55;;;;;;;0.68;0.30;;;15.00;97.60;;;;;;5095373;28;20028;-80
2021/10/04 11:43:21;;;;;;;0.88;0.25;;;15.10;97.70;;;;;;5094772;28;20477;-80
2021/10/04 11:45:48;;;;;;;0.75;0.28;;;15.00;97.60;;;;;;5095013;28;20115;-80
2021/10/04 11:48:32;;;;;;;0.43;0.28;;;15.00;97.80;;;;;;5094590;28;20039;-81
2021/10/04 11:50:58;;;;;;;0.70;0.30;;;15.10;98.30;;;;;;5096011;28;20032;-80
2021/10/04 11:53:28;;;;;;;0.60;0.30;;;15.00;98.40;;;;;;5094887;28;20032;-80
2021/10/04 11:56:08;;;;;;;0.30;0.20;;;15.10;98.30;;;;;;5095956;28;20109;-81
2021/10/04 11:58:45;;;;;;;0.63;0.40;;;15.00;98.20;;;;;;5095070;28;20540;-81
2021/10/04 12:01:11;;;;;;;0.75;0.30;;;15.00;98.50;;;;;;5094394;28;20035;-81
2021/10/04 12:03:39;;;;;;;0.50;0.40;;;15.00;99.00;;;;;;5095564;28;20028;-81
2021/10/04 12:06:06;;;;;;;1.58;0.47;;;15.10;98.80;;;;;;5095413;28;20115;-81
2021/10/04 12:08:40;;;;;;;0.90;0.17;;;15.10;98.70;;;;;;5095132;28;20031;-81
2021/10/04 12:11:09;;;;;;;0.43;0.22;;;15.10;98.70;;;;;;5095194;28;20477;-81
2021/10/04 12:13:39;;;;;;;0.32;0.30;;;15.10;97.90;;;;;;5094524;28;20032;-81
2021/10/04 12:16:07;;;;;;;0.75;0.40;;;15.10;98.20;;;;;;5095564;28;20062;-81
2021/10/04 12:18:48;;;;;;;0.63;0.30;;;15.10;98.30;;;;;;5094967;28;20042;-81
2021/10/04 12:21:15;;;;;;;3.70;0.30;;;15.20;98.10;;;;;;5094252;28;20032;-81
2021/10/04 12:23:42;;;;;;;0.50;0.28;;;15.20;98.10;;;;;;5094320;28;20468;-81
2021/10/04 12:26:09;;;;;;;0.80;0.30;;;15.20;98.00;;;;;;5094045;28;20028;-81
2021/10/04 12:28:49;;;;;;;0.55;0.22;;;15.10;98.10;;;;;;5095285;28;20036;-81
2021/10/04 12:31:36;;;;;;;0.70;0.30;;;15.10;98.10;;;;;;5093700;28;20085;-81
2021/10/04 12:34:18;;;;;;;0.47;0.20;;;15.20;97.70;;;;;;5093447;28;20028;-80
2021/10/04 12:36:43;;;;;;;;;;;15.20;97.80;;;;;;5094636;28;20070;-81
2021/10/04 12:39:09;;;;;;;1.33;0.20;;;15.20;97.60;;;;;;5093967;28;20399;-81
2021/10/04 12:41:42;;;;;;;0.80;0.20;;;15.20;97.40;;;;;;5099127;28;20038;-81
2021/10/04 12:44:14;;;;;;;0.63;0.35;;;15.20;97.40;;;;;;5094640;28;20073;-82
2021/10/04 12:46:40;;;;;;;0.60;0.30;;;15.20;97.70;;;;;;5094072;28;20073;-81
2021/10/04 12:49:20;;;;;;;1.20;0.20;;;15.30;97.80;;;;;;5094674;28;20036;-82
2021/10/04 12:51:46;;;;;;;0.55;0.20;;;15.40;97.80;;;;;;5094938;28;20024;-81